createdAt,value
2023-01-18T00:00:40.372Z,98158.78
2023-01-18T00:03:13.219Z,98156.09
2023-01-18T00:05:42.050Z,98145.84
2023-01-18T00:08:16.457Z,98149.03
2023-01-18T00:10:44.026Z,98152.31
2023-01-18T00:13:12.276Z,98154.53
2023-01-18T00:15:39.617Z,98156.22
2023-01-18T00:18:07.280Z,98150.47
2023-01-18T00:20:34.617Z,98143.81
2023-01-18T00:23:02.228Z,98141.38
2023-01-18T00:25:30.640Z,98143.13
2023-01-18T00:27:57.986Z,98137.72
2023-01-18T00:30:27.847Z,98138.19
2023-01-18T00:32:59.444Z,98146.06
2023-01-18T00:35:26.962Z,98147.72
2023-01-18T00:37:54.597Z,98154.91
2023-01-18T00:40:22.908Z,98160.63
2023-01-18T00:43:08.909Z,98156.44
2023-01-18T00:45:36.280Z,98162.31
2023-01-18T00:48:03.823Z,98166.44
2023-01-18T00:50:31.221Z,98175.75
2023-01-18T00:53:00.201Z,98175.06
2023-01-18T00:55:47.081Z,98177.28
2023-01-18T00:58:14.676Z,98180.59
2023-01-18T01:00:42.211Z,98181.44
2023-01-18T01:03:09.687Z,98189.72
2023-01-18T01:05:56.599Z,98180.06
2023-01-18T01:08:24.038Z,98185.06
2023-01-18T01:10:53.422Z,98188.53
2023-01-18T01:13:40.888Z,98187.06
2023-01-18T01:16:29.417Z,98196.81
2023-01-18T01:19:15.988Z,98206.53
2023-01-18T01:22:01.884Z,98202.75
2023-01-18T01:24:47.913Z,98203.13
2023-01-18T01:27:15.249Z,98207.19
2023-01-18T01:29:42.834Z,98216.59
2023-01-18T01:32:10.679Z,98208.63
2023-01-18T01:34:38.186Z,98213.34
2023-01-18T01:37:05.727Z,98209.09
2023-01-18T01:39:33.120Z,98202.94
2023-01-18T01:42:00.458Z,98203.00
2023-01-18T01:44:29.940Z,98214.38
2023-01-18T01:47:21.471Z,98216.03
2023-01-18T01:49:55.069Z,98215.28
2023-01-18T01:52:27.987Z,98230.09
2023-01-18T01:55:01.759Z,98231.66
2023-01-18T01:57:36.625Z,98229.19
2023-01-18T02:00:11.298Z,98236.56
2023-01-18T02:02:45.829Z,98239.19
2023-01-18T02:05:16.648Z,98250.41
2023-01-18T02:07:44.449Z,98241.66
2023-01-18T02:10:11.853Z,98246.44
2023-01-18T02:12:41.264Z,98250.97
2023-01-18T02:15:09.226Z,98243.16
2023-01-18T02:17:48.652Z,98245.44
2023-01-18T02:20:43.967Z,98235.38
2023-01-18T02:23:30.030Z,98224.91
2023-01-18T02:26:21.795Z,98211.25
2023-01-18T02:29:02.024Z,98214.06
2023-01-18T02:31:37.819Z,98217.75
2023-01-18T02:34:13.638Z,98226.88
2023-01-18T02:37:04.481Z,98221.59
2023-01-18T02:39:59.520Z,98221.13
2023-01-18T02:42:47.017Z,98223.63
2023-01-18T02:45:59.719Z,98234.03
2023-01-18T02:48:33.700Z,98240.78
2023-01-18T02:51:01.027Z,98248.75
2023-01-18T02:53:29.077Z,98246.94
2023-01-18T02:56:13.495Z,98252.19
2023-01-18T02:58:47.327Z,98253.44
2023-01-18T03:01:33.922Z,98258.72
2023-01-18T03:04:06.405Z,98251.88
2023-01-18T03:06:34.892Z,98256.25
2023-01-18T03:09:02.612Z,98259.94
2023-01-18T03:11:41.929Z,98272.94
2023-01-18T03:14:22.056Z,98275.97
2023-01-18T03:17:04.932Z,98287.63
2023-01-18T03:20:03.220Z,98287.53
2023-01-18T03:22:55.514Z,98283.16
2023-01-18T03:25:30.731Z,98291.78
2023-01-18T03:28:21.781Z,98289.09
2023-01-18T03:31:10.942Z,98293.56
2023-01-18T03:33:44.923Z,98303.69
2023-01-18T03:36:18.999Z,98306.38
2023-01-18T03:38:52.837Z,98314.44
2023-01-18T03:41:22.588Z,98312.06
2023-01-18T03:43:52.274Z,98303.31
2023-01-18T03:46:22.303Z,98316.78
2023-01-18T03:48:49.924Z,98307.16
2023-01-18T03:51:40.208Z,98319.47
2023-01-18T03:54:22.864Z,98316.00
2023-01-18T03:57:00.743Z,98324.50
2023-01-18T03:59:34.201Z,98318.13
2023-01-18T04:02:03.633Z,98315.56
2023-01-18T04:04:31.235Z,98319.00
2023-01-18T04:06:59.196Z,98321.56
2023-01-18T04:09:27.313Z,98310.91
2023-01-18T04:11:54.779Z,98313.19
2023-01-18T04:14:22.293Z,98325.41
2023-01-18T04:16:49.993Z,98322.72
2023-01-18T04:19:17.767Z,98328.19
2023-01-18T04:21:45.235Z,98329.47
2023-01-18T04:24:12.928Z,98323.28
2023-01-18T04:26:40.465Z,98343.81
2023-01-18T04:29:09.174Z,98326.56
2023-01-18T04:31:36.791Z,98333.50
2023-01-18T04:34:04.348Z,98323.59
2023-01-18T04:36:31.825Z,98333.16
2023-01-18T04:38:59.404Z,98334.72
2023-01-18T04:41:26.906Z,98335.06
2023-01-18T04:43:54.672Z,98332.16
2023-01-18T04:46:22.207Z,98325.84
2023-01-18T04:48:51.832Z,98326.75
2023-01-18T04:51:19.854Z,98331.69
2023-01-18T04:53:48.094Z,98340.66
2023-01-18T04:56:16.293Z,98340.31
2023-01-18T04:58:44.145Z,98344.59
2023-01-18T05:01:14.662Z,98363.75
2023-01-18T05:03:42.461Z,98372.00
2023-01-18T05:06:12.947Z,98367.38
2023-01-18T05:08:41.111Z,98371.16
2023-01-18T05:11:14.450Z,98372.88
2023-01-18T05:13:43.028Z,98364.69
2023-01-18T05:16:17.881Z,98372.50
2023-01-18T05:18:46.287Z,98379.16
2023-01-18T05:21:14.789Z,98370.16
2023-01-18T05:23:42.420Z,98389.22
2023-01-18T05:26:16.051Z,98394.53
2023-01-18T05:28:44.797Z,98392.91
2023-01-18T05:31:13.315Z,98390.16
2023-01-18T05:33:41.113Z,98390.94
2023-01-18T05:36:08.862Z,98394.31
2023-01-18T05:38:36.334Z,98387.41
2023-01-18T05:41:03.893Z,98387.13
2023-01-18T05:43:31.515Z,98395.38
2023-01-18T05:45:59.154Z,98395.28
2023-01-18T05:48:26.689Z,98399.88
2023-01-18T05:50:54.424Z,98409.75
2023-01-18T05:53:23.249Z,98425.38
2023-01-18T05:55:58.781Z,98422.34
2023-01-18T05:58:27.819Z,98446.97
2023-01-18T06:00:55.735Z,98459.09
2023-01-18T06:03:25.271Z,98467.81
2023-01-18T06:05:53.305Z,98470.69
2023-01-18T06:08:21.241Z,98474.66
2023-01-18T06:10:59.556Z,98481.66
2023-01-18T06:13:28.986Z,98479.44
2023-01-18T06:15:58.538Z,98472.50
2023-01-18T06:18:27.697Z,98462.53
2023-01-18T06:21:01.384Z,98462.06
2023-01-18T06:23:30.323Z,98476.66
2023-01-18T06:25:58.613Z,98487.34
2023-01-18T06:28:26.200Z,98493.53
2023-01-18T06:30:55.467Z,98489.84
2023-01-18T06:33:24.213Z,98504.56
2023-01-18T06:35:52.338Z,98504.81
2023-01-18T06:38:20.735Z,98499.44
2023-01-18T06:40:48.224Z,98507.72
2023-01-18T06:43:16.068Z,98505.47
2023-01-18T06:45:43.820Z,98513.28
2023-01-18T06:48:11.258Z,98516.56
2023-01-18T06:50:38.840Z,98508.38
2023-01-18T06:53:06.329Z,98507.13
2023-01-18T06:55:34.761Z,98507.91
2023-01-18T06:58:02.760Z,98494.66
2023-01-18T07:00:30.254Z,98514.91
2023-01-18T07:02:58.664Z,98518.53
2023-01-18T07:05:26.456Z,98523.25
2023-01-18T07:07:53.877Z,98530.59
2023-01-18T07:10:21.448Z,98530.25
2023-01-18T07:12:50.941Z,98543.13
2023-01-18T07:15:22.851Z,98550.31
2023-01-18T07:17:50.969Z,98562.88
2023-01-18T07:20:18.659Z,98543.84
2023-01-18T07:22:46.147Z,98558.22
2023-01-18T07:25:13.799Z,98550.34
2023-01-18T07:27:43.598Z,98547.63
2023-01-18T07:30:12.504Z,98555.88
2023-01-18T07:32:45.161Z,98539.97
2023-01-18T07:35:12.641Z,98554.69
2023-01-18T07:37:40.062Z,98551.72
2023-01-18T07:40:10.442Z,98554.22
2023-01-18T07:42:37.995Z,98552.13
2023-01-18T07:45:09.359Z,98559.41
2023-01-18T07:47:39.254Z,98556.53
2023-01-18T07:50:07.231Z,98546.94
2023-01-18T07:52:34.936Z,98558.63
2023-01-18T07:55:02.557Z,98555.59
2023-01-18T07:57:29.936Z,98563.53
2023-01-18T07:59:57.448Z,98561.66
2023-01-18T08:02:24.913Z,98561.72
2023-01-18T08:04:52.486Z,98562.09
2023-01-18T08:07:20.057Z,98569.25
2023-01-18T08:09:47.531Z,98577.78
2023-01-18T08:12:18.109Z,98598.78
2023-01-18T08:14:46.063Z,98599.72
2023-01-18T08:17:13.525Z,98612.53
2023-01-18T08:19:41.077Z,98597.88
2023-01-18T08:22:08.619Z,98606.03
2023-01-18T08:24:36.072Z,98602.59
2023-01-18T08:27:03.618Z,98596.97
2023-01-18T08:29:32.425Z,98616.25
2023-01-18T08:32:00.778Z,98616.19
2023-01-18T08:34:28.617Z,98605.97
2023-01-18T08:36:56.081Z,98625.91
2023-01-18T08:39:23.726Z,98633.00
2023-01-18T08:41:51.204Z,98660.97
2023-01-18T08:44:18.982Z,98655.16
2023-01-18T08:46:46.513Z,98657.03
2023-01-18T08:49:14.125Z,98659.28
2023-01-18T08:51:42.005Z,98670.63
2023-01-18T08:54:09.535Z,98676.59
2023-01-18T08:56:37.074Z,98669.53
2023-01-18T08:59:08.841Z,98667.53
2023-01-18T09:01:36.402Z,98683.78
2023-01-18T09:04:04.228Z,98693.16
2023-01-18T09:06:33.820Z,98688.34
2023-01-18T09:09:01.687Z,98697.19
2023-01-18T09:11:29.252Z,98703.53
2023-01-18T09:14:01.406Z,98695.69
2023-01-18T09:16:30.554Z,98709.88
2023-01-18T09:18:58.687Z,98719.34
2023-01-18T09:21:28.481Z,98725.19
2023-01-18T09:23:56.112Z,98741.16
2023-01-18T09:26:23.619Z,98739.47
2023-01-18T09:28:52.848Z,98753.41
2023-01-18T09:31:23.489Z,98750.84
2023-01-18T09:33:54.003Z,98757.34
2023-01-18T09:36:26.723Z,98764.69
2023-01-18T09:38:57.885Z,98777.88
2023-01-18T09:41:31.181Z,98776.94
2023-01-18T09:44:04.684Z,98780.00
2023-01-18T09:46:36.350Z,98788.22
2023-01-18T09:49:12.743Z,98797.88
2023-01-18T09:51:43.053Z,98805.28
2023-01-18T09:54:34.516Z,98803.91
2023-01-18T09:57:16.183Z,98812.25
2023-01-18T10:00:01.058Z,98807.53
2023-01-18T10:02:39.427Z,98811.63
2023-01-18T10:05:11.527Z,98827.16
2023-01-18T10:07:52.185Z,98831.47
2023-01-18T10:10:20.012Z,98838.75
2023-01-18T10:12:58.172Z,98828.66
2023-01-18T10:15:35.113Z,98843.34
2023-01-18T10:18:02.705Z,98852.44
2023-01-18T10:20:38.630Z,98868.06
2023-01-18T10:23:09.305Z,98871.19
2023-01-18T10:25:52.407Z,98868.13
2023-01-18T10:28:48.962Z,98876.69
2023-01-18T10:31:22.491Z,98883.25
2023-01-18T10:33:55.310Z,98873.63
2023-01-18T10:36:32.803Z,98883.09
2023-01-18T10:39:02.853Z,98888.38
2023-01-18T10:41:37.918Z,98891.09
2023-01-18T10:44:05.753Z,98887.44
2023-01-18T10:46:33.169Z,98879.81
2023-01-18T10:49:00.931Z,98867.91
2023-01-18T10:51:37.219Z,98858.13
2023-01-18T10:54:34.176Z,98868.06
2023-01-18T10:57:03.688Z,98864.94
2023-01-18T10:59:42.580Z,98862.09
2023-01-18T11:02:33.589Z,98854.44
2023-01-18T11:05:22.482Z,98854.84
2023-01-18T11:08:14.306Z,98852.34
2023-01-18T11:10:43.816Z,98850.09
2023-01-18T11:13:42.913Z,98859.72
2023-01-18T11:16:15.642Z,98847.53
2023-01-18T11:19:01.780Z,98848.16
2023-01-18T11:21:43.887Z,98839.56
2023-01-18T11:24:24.915Z,98828.41
2023-01-18T11:26:59.789Z,98828.78
2023-01-18T11:29:34.956Z,98836.34
2023-01-18T11:32:06.860Z,98826.88
2023-01-18T11:34:39.393Z,98828.13
2023-01-18T11:37:29.333Z,98832.34
2023-01-18T11:39:57.228Z,98834.69
2023-01-18T11:42:28.420Z,98826.09
2023-01-18T11:44:55.878Z,98827.59
2023-01-18T11:47:59.089Z,98832.00
2023-01-18T11:50:34.230Z,98824.28
2023-01-18T11:53:24.525Z,98823.13
2023-01-18T11:56:05.869Z,98828.41
2023-01-18T11:58:35.763Z,98823.91
2023-01-18T12:01:27.640Z,98829.22
2023-01-18T12:04:06.539Z,98831.97
2023-01-18T12:06:54.532Z,98836.72
2023-01-18T12:09:48.955Z,98832.81
2023-01-18T12:12:37.392Z,98826.84
2023-01-18T12:15:17.224Z,98825.38
2023-01-18T12:18:13.355Z,98824.84
2023-01-18T12:21:01.924Z,98829.09
2023-01-18T12:23:44.584Z,98823.56
2023-01-18T12:26:49.426Z,98839.91
2023-01-18T12:29:54.112Z,98849.41
2023-01-18T12:32:49.032Z,98853.03
2023-01-18T12:35:45.120Z,98850.44
2023-01-18T12:38:26.001Z,98855.84
2023-01-18T12:41:35.051Z,98853.03
2023-01-18T12:44:11.665Z,98859.88
2023-01-18T12:46:40.958Z,98867.53
2023-01-18T12:49:19.205Z,98875.84
2023-01-18T12:51:51.127Z,98884.44
2023-01-18T12:54:24.811Z,98889.38
2023-01-18T12:56:56.293Z,98889.81
2023-01-18T12:59:40.704Z,98901.34
2023-01-18T13:02:21.465Z,98879.66
2023-01-18T13:04:59.659Z,98882.41
2023-01-18T13:07:36.381Z,98891.56
2023-01-18T13:10:07.490Z,98899.22
2023-01-18T13:12:35.896Z,98891.00
2023-01-18T13:15:25.833Z,98893.91
2023-01-18T13:18:05.794Z,98891.16
2023-01-18T13:21:02.351Z,98894.31
2023-01-18T13:23:48.143Z,98894.34
2023-01-18T13:26:29.932Z,98900.88
2023-01-18T13:29:08.142Z,98891.66
2023-01-18T13:31:36.800Z,98881.41
2023-01-18T13:34:04.645Z,98885.31
2023-01-18T13:36:45.263Z,98891.84
2023-01-18T13:39:19.213Z,98885.06
2023-01-18T13:42:05.013Z,98878.44
2023-01-18T13:44:45.971Z,98877.03
2023-01-18T13:47:45.959Z,98881.13
2023-01-18T13:50:38.171Z,98879.59
2023-01-18T13:53:14.495Z,98879.72
2023-01-18T13:55:47.131Z,98885.56
2023-01-18T13:58:35.022Z,98888.75
2023-01-18T14:01:05.567Z,98890.25
2023-01-18T14:03:43.695Z,98890.31
2023-01-18T14:06:24.903Z,98895.91
2023-01-18T14:08:56.201Z,98895.06
2023-01-18T14:11:27.807Z,98889.81
2023-01-18T14:13:55.039Z,98897.97
2023-01-18T14:16:29.503Z,98894.63
2023-01-18T14:19:18.366Z,98887.25
2023-01-18T14:21:54.828Z,98898.00
2023-01-18T14:24:37.890Z,98905.00
2023-01-18T14:27:09.479Z,98914.66
2023-01-18T14:29:42.927Z,98902.31
2023-01-18T14:32:18.426Z,98900.47
2023-01-18T14:34:46.009Z,98903.59
2023-01-18T14:37:32.088Z,98890.25
2023-01-18T14:40:05.517Z,98897.56
2023-01-18T14:42:35.146Z,98906.63
2023-01-18T14:45:04.669Z,98903.50
2023-01-18T14:47:33.917Z,98905.72
2023-01-18T14:50:04.216Z,98899.09
2023-01-18T14:52:34.305Z,98904.63
2023-01-18T14:55:01.998Z,98898.75
2023-01-18T14:57:29.456Z,98903.94
2023-01-18T15:00:14.825Z,98902.16
2023-01-18T15:02:43.324Z,98902.09
2023-01-18T15:05:11.829Z,98895.66
2023-01-18T15:07:40.724Z,98888.53
2023-01-18T15:10:09.452Z,98894.63
2023-01-18T15:12:39.043Z,98904.06
2023-01-18T15:15:21.679Z,98900.66
2023-01-18T15:17:50.432Z,98900.88
2023-01-18T15:20:18.300Z,98902.97
2023-01-18T15:22:45.847Z,98908.75
2023-01-18T15:25:39.678Z,98917.59
2023-01-18T15:28:22.927Z,98914.34
2023-01-18T15:30:53.725Z,98909.28
2023-01-18T15:33:23.668Z,98924.59
2023-01-18T15:35:56.926Z,98915.00
2023-01-18T15:38:24.620Z,98922.59
2023-01-18T15:41:00.994Z,98929.56
2023-01-18T15:43:28.590Z,98932.25
2023-01-18T15:45:57.491Z,98940.53
2023-01-18T15:48:27.046Z,98947.25
2023-01-18T15:51:04.335Z,98944.03
2023-01-18T15:53:37.641Z,98945.50
2023-01-18T15:56:07.958Z,98950.25
2023-01-18T15:58:42.894Z,98954.22
2023-01-18T16:01:12.978Z,98954.09
2023-01-18T16:03:53.830Z,98958.53
2023-01-18T16:06:21.172Z,98955.00
2023-01-18T16:09:12.180Z,98951.88
2023-01-18T16:11:56.626Z,98961.06
2023-01-18T16:14:35.324Z,98953.78
2023-01-18T16:17:16.071Z,98959.09
2023-01-18T16:19:52.035Z,98966.94
2023-01-18T16:22:24.943Z,98971.19
2023-01-18T16:25:29.579Z,98973.44
2023-01-18T16:28:00.376Z,98973.16
2023-01-18T16:30:40.712Z,98970.78
2023-01-18T16:33:17.748Z,98976.34
2023-01-18T16:35:46.044Z,98978.22
2023-01-18T16:38:15.903Z,98977.31
2023-01-18T16:40:49.509Z,98968.75
2023-01-18T16:43:26.409Z,98968.56
2023-01-18T16:45:56.050Z,98970.31
2023-01-18T16:48:26.199Z,98954.41
2023-01-18T16:50:55.883Z,98961.13
2023-01-18T16:53:23.438Z,98955.75
2023-01-18T16:55:51.068Z,98948.75
2023-01-18T16:58:19.044Z,98949.22
2023-01-18T17:01:06.978Z,98935.75
2023-01-18T17:03:36.104Z,98950.47
2023-01-18T17:06:03.857Z,98940.44
2023-01-18T17:08:31.202Z,98954.31
2023-01-18T17:10:58.560Z,98957.69
2023-01-18T17:13:26.022Z,98963.28
2023-01-18T17:15:53.660Z,98969.78
2023-01-18T17:18:26.953Z,98975.19
2023-01-18T17:20:55.426Z,98978.69
2023-01-18T17:23:23.386Z,98977.09
2023-01-18T17:25:51.080Z,98974.25
2023-01-18T17:28:19.445Z,98984.06
2023-01-18T17:30:49.500Z,98989.13
2023-01-18T17:33:20.431Z,99001.19
2023-01-18T17:35:49.985Z,98995.31
2023-01-18T17:38:24.415Z,99003.72
2023-01-18T17:40:52.767Z,99005.94
2023-01-18T17:43:32.027Z,99013.53
2023-01-18T17:46:05.950Z,99022.09
2023-01-18T17:48:33.999Z,99027.03
2023-01-18T17:51:01.533Z,99025.63
2023-01-18T17:53:29.047Z,99026.59
2023-01-18T17:55:56.526Z,99026.88
2023-01-18T17:58:24.244Z,99041.31
2023-01-18T18:00:51.956Z,99050.09
2023-01-18T18:03:20.555Z,99052.28
2023-01-18T18:05:48.299Z,99051.19
2023-01-18T18:08:18.101Z,99058.19
2023-01-18T18:10:45.574Z,99052.50
2023-01-18T18:13:12.931Z,99056.81
2023-01-18T18:15:45.926Z,99058.06
2023-01-18T18:18:22.638Z,99064.13
2023-01-18T18:20:56.939Z,99069.97
2023-01-18T18:23:25.240Z,99064.41
2023-01-18T18:25:53.075Z,99072.13
2023-01-18T18:28:21.529Z,99080.25
2023-01-18T18:30:50.355Z,99079.00
2023-01-18T18:33:19.565Z,99088.38
2023-01-18T18:35:51.892Z,99090.22
2023-01-18T18:38:22.911Z,99097.69
2023-01-18T18:40:51.221Z,99088.66
2023-01-18T18:43:19.225Z,99101.00
2023-01-18T18:45:47.704Z,99099.09
2023-01-18T18:48:15.292Z,99106.91
2023-01-18T18:50:42.775Z,99110.41
2023-01-18T18:53:10.430Z,99110.41
2023-01-18T18:55:38.022Z,99124.50
2023-01-18T18:58:05.830Z,99122.75
2023-01-18T19:00:33.314Z,99121.00
2023-01-18T19:03:02.755Z,99131.00
2023-01-18T19:05:31.312Z,99136.09
2023-01-18T19:07:59.312Z,99131.34
2023-01-18T19:10:29.051Z,99143.53
2023-01-18T19:12:57.595Z,99135.94
2023-01-18T19:15:25.701Z,99145.09
2023-01-18T19:17:53.945Z,99152.06
2023-01-18T19:20:21.966Z,99156.03
2023-01-18T19:22:50.561Z,99147.00
2023-01-18T19:25:18.578Z,99150.97
2023-01-18T19:27:46.098Z,99150.81
2023-01-18T19:30:18.697Z,99155.41
2023-01-18T19:32:51.071Z,99156.66
2023-01-18T19:35:20.225Z,99160.13
2023-01-18T19:37:48.488Z,99173.94
2023-01-18T19:40:16.979Z,99175.19
2023-01-18T19:42:44.620Z,99171.53
2023-01-18T19:45:19.575Z,99176.13
2023-01-18T19:47:54.771Z,99176.13
2023-01-18T19:50:23.433Z,99172.03
2023-01-18T19:52:51.282Z,99176.66
2023-01-18T19:55:20.223Z,99157.78
2023-01-18T19:57:48.640Z,99155.53
2023-01-18T20:00:16.671Z,99158.88
2023-01-18T20:02:44.259Z,99151.88
2023-01-18T20:05:11.827Z,99161.25
2023-01-18T20:07:39.744Z,99162.84
2023-01-18T20:10:07.810Z,99161.88
2023-01-18T20:12:35.371Z,99160.47
2023-01-18T20:15:03.225Z,99152.84
2023-01-18T20:17:30.932Z,99149.50
2023-01-18T20:19:58.476Z,99147.16
2023-01-18T20:22:26.088Z,99147.16
2023-01-18T20:24:53.546Z,99137.16
2023-01-18T20:27:21.035Z,99137.31
2023-01-18T20:29:48.456Z,99142.88
2023-01-18T20:32:17.582Z,99145.44
2023-01-18T20:34:47.020Z,99145.09
2023-01-18T20:37:15.661Z,99144.47
2023-01-18T20:39:43.247Z,99148.28
2023-01-18T20:42:10.657Z,99132.63
2023-01-18T20:44:38.111Z,99141.63
2023-01-18T20:47:05.781Z,99138.47
2023-01-18T20:49:38.089Z,99137.50
2023-01-18T20:52:07.719Z,99143.06
2023-01-18T20:54:36.705Z,99142.91
2023-01-18T20:57:07.262Z,99159.25
2023-01-18T20:59:34.759Z,99161.47
2023-01-18T21:02:03.132Z,99166.06
2023-01-18T21:04:30.750Z,99165.41
2023-01-18T21:06:58.377Z,99162.44
2023-01-18T21:09:25.998Z,99170.50
2023-01-18T21:11:53.650Z,99164.47
2023-01-18T21:14:21.152Z,99160.03
2023-01-18T21:16:48.788Z,99162.28
2023-01-18T21:19:16.871Z,99157.78
2023-01-18T21:21:44.691Z,99164.13
2023-01-18T21:24:12.328Z,99159.22
2023-01-18T21:26:39.797Z,99153.19
2023-01-18T21:29:07.189Z,99156.69
2023-01-18T21:31:34.652Z,99152.72
2023-01-18T21:34:02.061Z,99156.88
2023-01-18T21:36:29.472Z,99158.75
2023-01-18T21:38:57.000Z,99164.63
2023-01-18T21:41:43.056Z,99169.53
2023-01-18T21:44:30.733Z,99177.59
2023-01-18T21:46:59.020Z,99183.00
2023-01-18T21:50:15.951Z,99182.22
2023-01-18T21:52:51.900Z,99177.47
2023-01-18T21:55:20.135Z,99180.97
2023-01-18T21:58:07.464Z,99171.31
2023-01-18T22:00:39.422Z,99179.22
2023-01-18T22:03:07.303Z,99180.34
2023-01-18T22:05:34.904Z,99183.81
2023-01-18T22:08:02.769Z,99178.91
2023-01-18T22:10:30.345Z,99193.19
2023-01-18T22:12:57.960Z,99191.13
2023-01-18T22:15:25.498Z,99195.22
2023-01-18T22:17:53.073Z,99195.56
2023-01-18T22:20:20.674Z,99193.97
2023-01-18T22:22:48.499Z,99195.72
2023-01-18T22:25:15.900Z,99209.34
2023-01-18T22:27:43.499Z,99199.06
2023-01-18T22:30:11.441Z,99201.59
2023-01-18T22:32:39.274Z,99196.03
2023-01-18T22:35:06.756Z,99198.72
2023-01-18T22:37:34.241Z,99194.31
2023-01-18T22:40:01.569Z,99198.09
2023-01-18T22:42:29.183Z,99210.47
2023-01-18T22:44:56.600Z,99213.00
2023-01-18T22:47:24.039Z,99203.63
2023-01-18T22:49:51.452Z,99194.28
2023-01-18T22:52:19.040Z,99203.47
2023-01-18T22:54:46.725Z,99205.38
2023-01-18T22:57:14.464Z,99195.72
2023-01-18T22:59:41.915Z,99198.72
2023-01-18T23:02:09.322Z,99199.03
2023-01-18T23:04:36.804Z,99199.03
2023-01-18T23:07:04.390Z,99201.88
2023-01-18T23:09:31.759Z,99193.97
2023-01-18T23:11:59.174Z,99195.56
2023-01-18T23:14:45.149Z,99200.16
2023-01-18T23:17:32.154Z,99203.47
2023-01-18T23:19:59.677Z,99207.13
2023-01-18T23:22:27.294Z,99209.03
2023-01-18T23:24:54.878Z,99199.97
2023-01-18T23:27:22.891Z,99199.03
2023-01-18T23:29:57.415Z,99193.97
2023-01-18T23:32:26.624Z,99200.63
2023-01-18T23:34:55.419Z,99198.91
2023-01-18T23:37:23.569Z,99197.13
2023-01-18T23:40:09.644Z,99198.88
2023-01-18T23:42:55.645Z,99206.97
2023-01-18T23:45:41.749Z,99214.41
2023-01-18T23:48:29.767Z,99208.84
2023-01-18T23:51:15.752Z,99207.44
2023-01-18T23:54:01.777Z,99210.63
2023-01-18T23:56:29.413Z,99219.31
2023-01-18T23:58:57.479Z,99222.00
